Time;durP1;ratioP1;P1;durP2;ratioP2;P2;SDS_P1;SDS_P2;PMS_P1;PMS_P2;Temp;Humidity;BMP_temperature;BMP_pressure;BME280_temperature;BME280_humidity;BME280_pressure;Samples;Min_cycle;Max_cycle;Signal;HPM_P1;HPM_P2
2022/09/15 00:01:53;;;;;;;1.80;1.67;;;14.90;99.90;;;;;;5092089;28;20042;-73
2022/09/15 00:04:19;;;;;;;1.50;1.40;;;14.90;99.90;;;;;;5091973;28;20039;-73
2022/09/15 00:06:44;;;;;;;2.03;1.20;;;14.80;99.90;;;;;;5092123;28;20093;-73
2022/09/15 00:09:10;;;;;;;1.47;1.37;;;14.80;99.90;;;;;;5090614;28;20039;-73
2022/09/15 00:11:36;;;;;;;0.90;0.90;;;14.70;99.90;;;;;;5090744;28;20115;-73
2022/09/15 00:14:04;;;;;;;0.80;0.80;;;14.70;99.90;;;;;;5092062;28;20113;-73
2022/09/15 00:16:31;;;;;;;0.70;0.70;;;14.70;99.90;;;;;;5091883;28;20667;-73
2022/09/15 00:18:58;;;;;;;0.55;0.55;;;14.70;99.90;;;;;;5091640;28;20032;-72
2022/09/15 00:21:26;;;;;;;;;;;14.70;99.90;;;;;;5092211;28;20080;-73
2022/09/15 00:23:52;;;;;;;0.68;0.65;;;14.80;99.90;;;;;;5091392;28;19912;-72
2022/09/15 00:26:21;;;;;;;0.73;0.73;;;14.80;99.90;;;;;;5091444;28;20063;-71
2022/09/15 00:28:47;;;;;;;1.08;1.00;;;14.80;99.90;;;;;;5091247;28;20028;-72
2022/09/15 00:31:15;;;;;;;1.30;1.20;;;14.80;99.90;;;;;;5091126;28;20050;-72
2022/09/15 00:33:41;;;;;;;0.50;0.50;;;14.80;99.90;;;;;;5091189;28;20038;-73
2022/09/15 00:36:10;;;;;;;11.73;1.63;;;14.70;99.90;;;;;;5091341;28;20040;-72
2022/09/15 00:38:36;;;;;;;1.13;1.05;;;14.70;99.90;;;;;;5091385;28;20458;-72
2022/09/15 00:41:03;;;;;;;0.98;0.95;;;14.60;99.90;;;;;;5089699;28;20036;-72
2022/09/15 00:43:43;;;;;;;0.85;0.85;;;14.70;99.90;;;;;;5091146;28;20502;-72
2022/09/15 00:46:09;;;;;;;1.67;1.55;;;14.70;99.90;;;;;;5089584;28;20112;-71
2022/09/15 00:48:38;;;;;;;1.42;1.35;;;14.60;99.90;;;;;;5090565;28;20110;-71
2022/09/15 00:51:05;;;;;;;2.42;1.55;;;14.60;99.90;;;;;;5091015;28;20032;-72
2022/09/15 00:53:32;;;;;;;1.58;1.48;;;14.60;99.90;;;;;;5091152;28;20452;-72
2022/09/15 00:55:59;;;;;;;;;;;14.60;99.90;;;;;;5091611;28;20463;-71
2022/09/15 00:58:33;;;;;;;1.38;1.27;;;14.60;99.90;;;;;;5090946;28;20272;-72
2022/09/15 01:01:00;;;;;;;0.80;0.80;;;14.60;99.90;;;;;;5089394;28;20399;-72
2022/09/15 01:03:32;;;;;;;2.03;1.85;;;14.60;99.90;;;;;;5089560;28;20085;-72
2022/09/15 01:06:10;;;;;;;1.33;1.23;;;14.60;99.90;;;;;;5090685;28;20027;-72
2022/09/15 01:08:59;;;;;;;0.98;0.88;;;14.60;99.90;;;;;;5089330;28;20117;-73
2022/09/15 01:11:25;;;;;;;1.02;1.02;;;14.70;99.90;;;;;;5090220;28;20495;-73
2022/09/15 01:13:51;;;;;;;2.97;2.70;;;14.60;99.90;;;;;;5090785;28;20016;-73
2022/09/15 01:16:26;;;;;;;1.10;1.00;;;14.60;99.90;;;;;;5089244;28;20123;-73
2022/09/15 01:19:31;;;;;;;1.30;1.20;;;14.50;99.90;;;;;;5090614;28;20074;-73
2022/09/15 01:22:11;;;;;;;0.70;0.70;;;14.50;99.90;;;;;;5090652;28;20035;-73
2022/09/15 01:24:55;;;;;;;1.33;1.23;;;14.40;99.90;;;;;;5089325;28;20391;-73
2022/09/15 01:27:53;;;;;;;1.65;1.48;;;14.30;99.90;;;;;;5089080;28;20031;-73
2022/09/15 01:30:23;;;;;;;1.52;1.08;;;14.30;99.90;;;;;;5077718;28;20044;-72
2022/09/15 01:33:13;;;;;;;1.20;1.17;;;14.30;99.90;;;;;;5090779;28;20367;-71
2022/09/15 01:36:02;;;;;;;4.15;2.55;;;14.30;99.90;;;;;;5090566;28;20046;-73
2022/09/15 01:38:39;;;;;;;1.33;1.23;;;14.40;99.90;;;;;;5088865;28;20024;-72
2022/09/15 01:41:14;;;;;;;;;;;14.40;99.90;;;;;;5090543;28;20479;-72
2022/09/15 01:43:47;;;;;;;0.50;0.50;;;14.30;99.90;;;;;;5088500;28;20006;-71
2022/09/15 01:46:14;;;;;;;0.43;0.43;;;14.40;99.90;;;;;;5090110;28;20463;-71
2022/09/15 01:48:41;;;;;;;1.23;1.15;;;14.40;99.90;;;;;;5089809;28;20024;-72
2022/09/15 01:51:07;;;;;;;3.55;2.75;;;14.30;99.90;;;;;;5089683;28;20040;-72
2022/09/15 01:53:34;;;;;;;4.13;2.05;;;14.40;99.90;;;;;;5089831;28;20028;-72
2022/09/15 01:56:10;;;;;;;1.48;1.38;;;14.30;99.90;;;;;;5090032;28;20455;-70
2022/09/15 01:58:38;;;;;;;1.23;1.20;;;14.30;99.90;;;;;;5089540;28;20064;-72
2022/09/15 02:01:30;;;;;;;2.00;1.88;;;14.30;99.90;;;;;;5089732;28;20035;-72
2022/09/15 02:04:14;;;;;;;0.80;0.80;;;14.30;99.90;;;;;;5088268;28;20036;-73
2022/09/15 02:06:50;;;;;;;2.08;1.90;;;14.30;99.90;;;;;;5089907;28;20063;-74
2022/09/15 02:09:22;;;;;;;1.90;1.70;;;14.20;99.90;;;;;;5088195;28;20245;-73
2022/09/15 02:12:00;;;;;;;1.75;1.65;;;14.20;99.90;;;;;;5088187;28;20145;-72
2022/09/15 02:14:35;;;;;;;1.33;1.25;;;14.20;99.90;;;;;;5089617;28;20066;-74
2022/09/15 02:17:01;;;;;;;0.95;0.95;;;14.20;99.90;;;;;;5090002;28;20024;-73
2022/09/15 02:19:40;;;;;;;2.80;2.50;;;14.00;99.90;;;;;;5089612;28;20396;-73
2022/09/15 02:22:16;;;;;;;1.13;1.05;;;14.00;99.90;;;;;;5088299;28;20032;-74
2022/09/15 02:24:53;;;;;;;0.47;0.47;;;13.90;99.90;;;;;;5089498;28;20028;-71
2022/09/15 02:27:25;;;;;;;2.58;2.05;;;13.90;99.90;;;;;;5089491;28;20032;-72
2022/09/15 02:29:55;;;;;;;1.38;1.27;;;13.90;99.90;;;;;;5089367;28;20514;-73
2022/09/15 02:32:24;;;;;;;1.05;1.02;;;13.90;99.90;;;;;;5088091;28;20032;-72
2022/09/15 02:34:52;;;;;;;0.95;0.93;;;13.90;99.90;;;;;;5089387;28;20054;-72
2022/09/15 02:37:21;;;;;;;1.25;1.08;;;14.00;99.90;;;;;;5089319;28;20024;-72
2022/09/15 02:39:53;;;;;;;0.57;0.57;;;13.90;99.90;;;;;;5089408;28;20047;-72
2022/09/15 02:42:30;;;;;;;0.75;0.75;;;14.00;99.90;;;;;;5089750;28;20059;-72
2022/09/15 02:44:56;;;;;;;2.20;2.00;;;14.00;99.90;;;;;;5089322;28;20048;-72
2022/09/15 02:47:22;;;;;;;1.15;1.13;;;14.00;99.90;;;;;;5089762;28;20126;-72
2022/09/15 02:49:48;;;;;;;1.67;1.58;;;13.90;99.90;;;;;;5089207;28;20558;-73
2022/09/15 02:52:14;;;;;;;0.80;0.80;;;14.00;99.90;;;;;;5089537;28;20040;-74
2022/09/15 02:54:39;;;;;;;1.37;1.27;;;14.00;99.90;;;;;;5089290;28;20036;-72
2022/09/15 02:57:05;;;;;;;1.70;1.60;;;14.00;99.90;;;;;;5087892;28;20506;-73
2022/09/15 03:00:11;;;;;;;2.90;2.40;;;14.00;99.90;;;;;;5089144;28;20097;-72
2022/09/15 03:02:19;;;;;;;1.50;1.25;;;14.00;99.90;;;;;;5089489;28;20400;-72
2022/09/15 03:04:45;;;;;;;0.40;0.40;;;13.90;99.90;;;;;;5089166;28;20077;-71
2022/09/15 03:07:11;;;;;;;0.73;0.73;;;14.00;99.90;;;;;;5089452;28;20043;-73
2022/09/15 03:09:37;;;;;;;1.50;1.37;;;13.90;99.90;;;;;;5089618;28;20040;-72
2022/09/15 03:12:03;;;;;;;2.10;2.00;;;13.90;99.90;;;;;;5093108;28;20032;-72
2022/09/15 03:14:31;;;;;;;1.55;1.45;;;13.90;99.90;;;;;;5091416;28;20032;-72
2022/09/15 03:16:57;;;;;;;1.55;1.17;;;14.00;99.90;;;;;;5091389;28;20399;-73
2022/09/15 03:19:23;;;;;;;1.55;1.27;;;14.00;99.90;;;;;;5092696;28;20085;-71
2022/09/15 03:21:49;;;;;;;1.70;1.60;;;14.00;99.90;;;;;;5092982;28;20036;-72
2022/09/15 03:24:15;;;;;;;1.47;1.33;;;14.00;99.90;;;;;;5091407;28;20028;-74
2022/09/15 03:26:40;;;;;;;1.00;1.00;;;14.00;99.90;;;;;;5092817;28;20492;-71
2022/09/15 03:29:06;;;;;;;1.47;1.37;;;14.00;99.90;;;;;;5092546;28;20028;-71
2022/09/15 03:31:32;;;;;;;0.80;0.80;;;14.10;99.90;;;;;;5090906;28;20464;-71
2022/09/15 03:33:57;;;;;;;1.03;1.03;;;14.10;99.90;;;;;;5092332;28;20032;-72
2022/09/15 03:36:23;;;;;;;1.47;1.37;;;14.10;99.90;;;;;;5092462;28;20039;-72
2022/09/15 03:38:49;;;;;;;0.70;0.70;;;14.20;99.90;;;;;;5092326;28;20047;-73
2022/09/15 03:41:14;;;;;;;2.20;1.47;;;14.20;99.90;;;;;;5092402;28;20032;-73
2022/09/15 03:43:40;;;;;;;1.63;1.53;;;14.30;99.90;;;;;;5092210;28;20035;-73
2022/09/15 03:46:07;;;;;;;0.40;0.40;;;14.20;99.90;;;;;;5092393;28;20372;-73
2022/09/15 03:48:35;;;;;;;0.80;0.80;;;14.20;99.90;;;;;;5092497;28;20040;-73
2022/09/15 03:51:02;;;;;;;2.35;1.33;;;14.30;99.90;;;;;;5090646;28;20032;-72
2022/09/15 03:53:32;;;;;;;0.88;0.85;;;14.30;99.90;;;;;;5092213;28;20085;-73
2022/09/15 03:56:07;;;;;;;0.60;0.60;;;14.10;99.90;;;;;;5092059;28;20023;-73
2022/09/15 03:58:32;;;;;;;0.90;0.90;;;14.20;99.90;;;;;;5092012;28;20032;-72
2022/09/15 04:00:58;;;;;;;0.90;0.90;;;14.10;99.90;;;;;;5091912;28;20032;-73
2022/09/15 04:03:24;;;;;;;14.80;2.63;;;14.10;99.90;;;;;;5091883;28;20039;-73
2022/09/15 04:05:49;;;;;;;1.03;0.97;;;14.00;99.90;;;;;;5091723;28;20035;-72
2022/09/15 04:08:15;;;;;;;0.83;0.80;;;14.00;99.90;;;;;;5091728;28;20036;-72
2022/09/15 04:10:40;;;;;;;0.83;0.83;;;14.10;99.90;;;;;;5090252;28;20036;-72
2022/09/15 04:13:06;;;;;;;0.80;0.80;;;14.20;99.90;;;;;;5091651;28;20058;-74
2022/09/15 04:15:32;;;;;;;0.98;0.98;;;14.10;99.90;;;;;;5090035;28;20028;-72
2022/09/15 04:17:58;;;;;;;1.70;1.27;;;14.10;99.90;;;;;;5090023;28;20035;-72
2022/09/15 04:20:24;;;;;;;1.57;1.27;;;14.20;99.90;;;;;;5090112;28;20024;-72
2022/09/15 04:22:49;;;;;;;1.57;1.47;;;14.10;99.90;;;;;;5090568;28;20351;-72
2022/09/15 04:25:15;;;;;;;1.90;1.23;;;14.20;99.90;;;;;;5091324;28;20044;-73
2022/09/15 04:27:41;;;;;;;1.50;1.40;;;14.10;99.90;;;;;;5091764;28;20032;-73
2022/09/15 04:30:07;;;;;;;3.47;1.73;;;14.10;99.90;;;;;;5091394;28;20081;-72
2022/09/15 04:32:34;;;;;;;0.70;0.70;;;14.10;99.90;;;;;;5091662;28;20035;-71
2022/09/15 04:35:00;;;;;;;;;;;14.10;99.90;;;;;;5090159;28;20043;-71
2022/09/15 04:37:25;;;;;;;2.90;1.05;;;14.20;99.90;;;;;;5089924;28;19912;-74
2022/09/15 04:39:51;;;;;;;0.83;0.83;;;14.20;99.90;;;;;;5090746;28;20028;-72
2022/09/15 04:42:16;;;;;;;0.50;0.50;;;14.10;99.90;;;;;;5089615;28;20036;-73
2022/09/15 04:44:42;;;;;;;1.67;1.57;;;14.20;99.90;;;;;;5090625;28;20048;-73
2022/09/15 04:47:07;;;;;;;2.17;1.60;;;14.20;99.90;;;;;;5091182;28;20070;-72
2022/09/15 04:49:33;;;;;;;2.00;1.03;;;14.30;99.90;;;;;;5090913;28;20032;-72
2022/09/15 04:51:59;;;;;;;0.87;0.87;;;14.20;99.90;;;;;;5090849;28;20394;-72
2022/09/15 04:54:24;;;;;;;1.97;1.83;;;14.20;99.90;;;;;;5090683;28;20031;-73
2022/09/15 04:56:50;;;;;;;1.20;1.17;;;14.20;99.90;;;;;;5090949;28;20065;-73
2022/09/15 04:59:17;;;;;;;0.93;0.93;;;14.20;99.90;;;;;;5091007;28;20096;-73
2022/09/15 05:01:43;;;;;;;0.80;0.73;;;14.20;99.90;;;;;;5090844;28;20047;-73
2022/09/15 05:04:09;;;;;;;1.07;1.03;;;14.10;99.90;;;;;;5090812;28;20516;-73
2022/09/15 05:06:35;;;;;;;0.70;0.70;;;14.30;99.90;;;;;;5089105;28;20028;-72
2022/09/15 05:09:01;;;;;;;0.95;0.95;;;14.20;99.90;;;;;;5089075;28;20024;-72
2022/09/15 05:11:27;;;;;;;0.77;0.77;;;14.20;99.90;;;;;;5089190;28;20032;-71
2022/09/15 05:13:53;;;;;;;1.27;1.17;;;14.30;99.90;;;;;;5089397;28;20475;-72
2022/09/15 05:16:21;;;;;;;1.88;1.73;;;14.20;99.90;;;;;;5090806;28;20423;-73
2022/09/15 05:18:48;;;;;;;1.75;1.45;;;14.30;99.90;;;;;;5090559;28;20032;-73
2022/09/15 05:21:17;;;;;;;2.45;0.98;;;14.30;99.90;;;;;;5088890;28;20032;-70
2022/09/15 05:23:42;;;;;;;1.23;1.10;;;14.40;99.90;;;;;;5090434;28;20028;-71
2022/09/15 05:26:11;;;;;;;0.93;0.93;;;14.40;99.90;;;;;;5090292;28;20352;-71
2022/09/15 05:28:38;;;;;;;1.83;1.33;;;14.50;99.90;;;;;;5089176;28;20031;-73
2022/09/15 05:31:09;;;;;;;2.75;1.90;;;14.50;99.90;;;;;;5089880;28;20120;-74
2022/09/15 05:33:35;;;;;;;0.60;0.60;;;14.50;99.90;;;;;;5088263;28;20035;-71
2022/09/15 05:36:01;;;;;;;1.87;1.77;;;14.60;99.90;;;;;;5089822;28;20104;-71
2022/09/15 05:38:30;;;;;;;1.00;1.00;;;14.60;99.90;;;;;;5089944;28;20238;-73
2022/09/15 05:41:07;;;;;;;1.70;1.10;;;14.70;99.90;;;;;;5089954;28;20252;-72
2022/09/15 05:43:34;;;;;;;1.50;1.40;;;14.60;99.90;;;;;;5090138;28;20495;-73
2022/09/15 05:46:00;;;;;;;1.40;1.30;;;14.60;99.90;;;;;;5090228;28;20736;-73
2022/09/15 05:48:26;;;;;;;3.80;1.23;;;14.60;99.90;;;;;;5090045;28;20369;-72
2022/09/15 05:50:53;;;;;;;0.73;0.73;;;14.60;99.90;;;;;;5089917;28;20528;-73
2022/09/15 05:53:20;;;;;;;0.85;0.85;;;14.60;99.90;;;;;;5090115;28;20052;-72
2022/09/15 05:55:46;;;;;;;1.40;1.23;;;14.70;99.90;;;;;;5090078;28;20130;-74
2022/09/15 05:58:12;;;;;;;0.63;0.63;;;14.60;99.90;;;;;;5089811;28;20492;-74
2022/09/15 06:00:39;;;;;;;1.37;1.27;;;14.60;99.90;;;;;;5089789;28;20038;-73
2022/09/15 06:03:04;;;;;;;0.93;0.77;;;14.70;99.90;;;;;;5089785;28;20524;-72
2022/09/15 06:05:30;;;;;;;1.23;1.20;;;14.70;99.90;;;;;;5089447;28;20024;-73
2022/09/15 06:07:56;;;;;;;0.93;0.93;;;14.60;99.90;;;;;;5088210;28;20047;-72
2022/09/15 06:10:23;;;;;;;1.07;1.07;;;14.80;99.90;;;;;;5087993;28;20084;-72
2022/09/15 06:12:52;;;;;;;2.13;1.67;;;14.90;99.90;;;;;;5088138;28;20073;-72
2022/09/15 06:15:18;;;;;;;0.68;0.68;;;14.80;99.90;;;;;;5088124;28;20501;-72
2022/09/15 06:17:44;;;;;;;2.10;1.90;;;14.80;99.90;;;;;;5089879;28;20020;-73
2022/09/15 06:20:09;;;;;;;1.00;0.83;;;14.90;99.90;;;;;;5089424;28;20035;-72
2022/09/15 06:22:35;;;;;;;0.70;0.70;;;14.90;99.90;;;;;;5089856;28;20024;-74
2022/09/15 06:25:01;;;;;;;1.67;1.57;;;14.90;99.90;;;;;;5089302;28;20024;-72
2022/09/15 06:27:26;;;;;;;0.93;0.93;;;14.90;99.90;;;;;;5089536;28;20031;-73
2022/09/15 06:29:52;;;;;;;1.03;1.03;;;15.00;99.90;;;;;;5087987;28;20033;-73
2022/09/15 06:32:17;;;;;;;0.93;0.93;;;15.00;99.90;;;;;;5089223;28;20119;-72
2022/09/15 06:34:43;;;;;;;1.87;1.73;;;15.00;99.90;;;;;;5087763;28;20032;-72
2022/09/15 06:37:08;;;;;;;2.03;1.90;;;15.00;99.90;;;;;;5089694;28;20032;-72
2022/09/15 06:39:34;;;;;;;0.90;0.90;;;15.10;99.90;;;;;;5089295;28;20115;-72
2022/09/15 06:42:00;;;;;;;2.20;2.00;;;15.00;99.90;;;;;;5087782;28;20089;-71
2022/09/15 06:44:26;;;;;;;1.33;1.25;;;15.00;99.90;;;;;;5089144;28;20040;-72
2022/09/15 06:46:52;;;;;;;0.97;0.97;;;15.10;99.90;;;;;;5093133;28;20437;-72
2022/09/15 06:49:18;;;;;;;0.70;0.70;;;15.10;99.90;;;;;;5093081;28;20143;-72
2022/09/15 06:51:44;;;;;;;1.03;0.87;;;15.10;99.90;;;;;;5091568;28;20122;-72
2022/09/15 06:54:10;;;;;;;1.60;1.50;;;15.20;99.90;;;;;;5093003;28;20213;-73
2022/09/15 06:56:36;;;;;;;2.10;1.98;;;15.20;99.90;;;;;;5093382;28;20519;-73
2022/09/15 06:59:02;;;;;;;2.33;2.17;;;15.30;99.90;;;;;;5092914;28;20136;-74
2022/09/15 07:01:30;;;;;;;;;;;15.20;99.90;;;;;;5091911;28;20395;-73
2022/09/15 07:03:57;;;;;;;0.50;0.50;;;15.20;99.90;;;;;;5092752;28;19908;-73
2022/09/15 07:06:23;;;;;;;2.03;1.88;;;15.20;99.90;;;;;;5091377;28;20028;-72
2022/09/15 07:08:49;;;;;;;1.23;1.20;;;15.20;99.90;;;;;;5092744;28;20032;-75
2022/09/15 07:11:17;;;;;;;1.00;1.00;;;15.30;99.90;;;;;;5091771;28;20426;-66
2022/09/15 07:13:42;;;;;;;2.17;1.98;;;15.40;99.90;;;;;;4977053;28;20098;-65
2022/09/15 07:16:10;;;;;;;1.50;1.40;;;15.60;99.90;;;;;;4984046;28;20401;-66
2022/09/15 07:18:36;;;;;;;1.10;1.10;;;15.50;99.90;;;;;;4970463;28;20470;-66
2022/09/15 07:21:05;;;;;;;1.70;1.60;;;15.60;99.90;;;;;;4983716;28;20109;-66
2022/09/15 07:23:31;;;;;;;1.45;1.35;;;15.50;99.90;;;;;;4989399;28;20045;-66
2022/09/15 07:26:10;;;;;;;3.97;1.80;;;15.60;99.90;;;;;;4989569;28;20046;-65
2022/09/15 07:28:36;;;;;;;2.63;2.42;;;15.60;99.90;;;;;;4986684;28;20685;-65
2022/09/15 07:31:03;;;;;;;2.25;2.05;;;15.80;99.90;;;;;;4970151;28;20487;-65
2022/09/15 07:33:29;;;;;;;3.25;2.70;;;15.80;99.90;;;;;;4969681;28;20494;-65
2022/09/15 07:35:54;;;;;;;29.83;2.37;;;15.90;99.90;;;;;;4969785;28;20038;-65
2022/09/15 07:38:20;;;;;;;1.27;1.23;;;16.00;99.90;;;;;;4969716;28;20386;-65
2022/09/15 07:40:47;;;;;;;1.33;1.23;;;15.90;99.90;;;;;;4969720;28;20394;-65
2022/09/15 07:43:14;;;;;;;1.45;1.35;;;15.90;99.90;;;;;;4969464;28;20042;-65
2022/09/15 07:45:39;;;;;;;1.52;1.42;;;15.90;99.90;;;;;;4971635;28;20058;-66
2022/09/15 07:48:05;;;;;;;2.23;2.03;;;15.90;99.90;;;;;;4989269;28;20498;-65
2022/09/15 07:50:31;;;;;;;1.47;1.37;;;15.90;99.90;;;;;;4989483;28;20027;-65
2022/09/15 07:52:56;;;;;;;0.90;0.90;;;15.80;99.90;;;;;;4989233;28;20033;-65
2022/09/15 07:55:23;;;;;;;1.80;1.70;;;15.80;99.90;;;;;;4989443;28;20037;-64
2022/09/15 07:58:02;;;;;;;2.17;1.58;;;15.80;99.90;;;;;;4989669;28;20147;-65
2022/09/15 08:00:28;;;;;;;3.05;2.28;;;15.90;99.90;;;;;;4989244;28;20406;-64
2022/09/15 08:02:54;;;;;;;1.63;1.33;;;15.80;99.90;;;;;;4989482;28;20034;-63
2022/09/15 08:05:20;;;;;;;2.55;2.35;;;15.80;99.90;;;;;;4988795;28;20042;-64
2022/09/15 08:07:46;;;;;;;1.40;1.30;;;15.80;99.90;;;;;;4987544;28;20482;-65
2022/09/15 08:10:12;;;;;;;1.03;0.93;;;15.80;99.90;;;;;;4988964;28;20053;-64
2022/09/15 08:12:39;;;;;;;1.67;1.40;;;15.80;99.90;;;;;;4986191;28;20105;-65
2022/09/15 08:15:05;;;;;;;4.13;2.55;;;15.80;99.90;;;;;;4988583;28;20632;-65
2022/09/15 08:17:31;;;;;;;2.87;1.90;;;15.80;99.90;;;;;;4988223;28;20030;-72
2022/09/15 08:19:57;;;;;;;1.17;1.07;;;15.90;99.90;;;;;;4985750;28;20104;-72
2022/09/15 08:22:22;;;;;;;1.50;1.37;;;15.90;99.90;;;;;;4985779;28;20113;-71
2022/09/15 08:24:48;;;;;;;1.03;0.90;;;15.90;99.90;;;;;;4988085;28;20080;-71
2022/09/15 08:27:13;;;;;;;1.37;1.27;;;15.90;99.90;;;;;;4988221;28;20045;-72
2022/09/15 08:29:39;;;;;;;2.43;2.23;;;15.90;99.90;;;;;;4988657;28;20109;-72
2022/09/15 08:32:05;;;;;;;1.23;1.17;;;16.00;99.90;;;;;;4987207;28;20536;-72
2022/09/15 08:34:30;;;;;;;2.27;2.07;;;16.00;99.90;;;;;;4987253;28;20731;-71
2022/09/15 08:36:56;;;;;;;1.60;1.33;;;16.10;99.90;;;;;;4988705;28;20018;-71
2022/09/15 08:39:22;;;;;;;2.20;2.00;;;16.10;99.90;;;;;;4988459;28;20038;-71
2022/09/15 08:41:50;;;;;;;1.20;1.13;;;16.10;99.90;;;;;;4988458;28;20129;-71
2022/09/15 08:44:35;;;;;;;1.30;1.20;;;16.10;99.90;;;;;;4988212;28;20095;-71
2022/09/15 08:47:03;;;;;;;1.13;1.02;;;16.10;99.90;;;;;;4988714;28;20030;-72
2022/09/15 08:49:56;;;;;;;2.00;1.77;;;16.10;99.90;;;;;;4988246;28;20398;-71
2022/09/15 08:52:31;;;;;;;2.05;1.92;;;16.10;99.90;;;;;;4988371;28;20034;-71
2022/09/15 08:55:03;;;;;;;2.60;1.33;;;16.20;99.90;;;;;;4988065;28;20047;-70
2022/09/15 08:57:29;;;;;;;3.00;1.40;;;16.20;99.90;;;;;;4988485;28;20100;-72
2022/09/15 08:59:55;;;;;;;0.80;0.80;;;16.20;99.90;;;;;;4986609;28;20121;-72
2022/09/15 09:02:41;;;;;;;1.37;1.27;;;16.20;99.90;;;;;;4988584;28;20380;-72
2022/09/15 09:05:46;;;;;;;1.65;1.52;;;16.20;99.90;;;;;;4988171;28;20272;-72
2022/09/15 09:08:29;;;;;;;1.75;1.65;;;16.30;99.90;;;;;;4985929;28;20034;-71
2022/09/15 09:11:30;;;;;;;2.22;2.03;;;16.30;99.90;;;;;;4987776;28;20081;-70
2022/09/15 09:14:16;;;;;;;1.70;1.60;;;16.30;99.90;;;;;;4987895;28;20390;-71
2022/09/15 09:16:42;;;;;;;1.67;1.58;;;16.30;99.90;;;;;;4988035;28;20035;-70
2022/09/15 09:19:13;;;;;;;7.23;1.70;;;16.30;99.90;;;;;;4988094;28;20041;-71
2022/09/15 09:21:45;;;;;;;0.93;0.93;;;16.30;99.90;;;;;;4987927;28;20438;-71
2022/09/15 09:24:31;;;;;;;2.38;1.25;;;16.40;99.90;;;;;;4987840;28;20490;-72
2022/09/15 09:26:57;;;;;;;0.68;0.68;;;16.40;99.90;;;;;;4986632;28;20026;-71
2022/09/15 09:29:38;;;;;;;0.70;0.70;;;16.40;99.90;;;;;;4986253;28;20034;-70
2022/09/15 09:32:15;;;;;;;1.25;1.23;;;16.50;99.90;;;;;;4986385;28;20125;-72
2022/09/15 09:34:46;;;;;;;1.63;1.52;;;16.50;99.90;;;;;;4986324;28;20026;-71
2022/09/15 09:37:14;;;;;;;1.15;1.15;;;16.50;99.90;;;;;;4987781;28;20427;-71
2022/09/15 09:39:41;;;;;;;1.58;1.48;;;16.60;99.90;;;;;;4986186;28;20031;-71
2022/09/15 09:42:14;;;;;;;1.30;1.20;;;16.60;99.90;;;;;;4986349;28;20048;-70
2022/09/15 09:44:40;;;;;;;2.03;1.83;;;16.60;99.90;;;;;;4987020;28;20065;-71
2022/09/15 09:47:06;;;;;;;1.05;1.05;;;16.60;99.90;;;;;;4987312;28;20109;-70
2022/09/15 09:49:48;;;;;;;4.20;1.00;;;16.70;99.90;;;;;;4985591;28;20494;-71
2022/09/15 09:52:37;;;;;;;0.57;0.57;;;16.60;99.90;;;;;;4985142;28;20066;-71
2022/09/15 09:55:20;;;;;;;1.33;0.77;;;16.70;99.90;;;;;;4986623;28;20022;-71
2022/09/15 09:57:46;;;;;;;2.22;2.05;;;16.70;99.90;;;;;;4986901;28;20509;-71
2022/09/15 10:00:33;;;;;;;2.80;1.60;;;16.80;99.90;;;;;;4986427;28;20054;-72
2022/09/15 10:03:14;;;;;;;18.65;1.77;;;16.90;99.90;;;;;;4986540;28;20069;-71
2022/09/15 10:05:40;;;;;;;1.83;1.38;;;17.00;99.90;;;;;;4986384;28;20432;-72
2022/09/15 10:08:06;;;;;;;1.70;1.55;;;17.00;99.90;;;;;;4985167;28;20030;-72
2022/09/15 10:10:32;;;;;;;0.80;0.80;;;17.00;99.90;;;;;;4985083;28;20545;-72
2022/09/15 10:13:01;;;;;;;2.40;2.07;;;17.00;99.90;;;;;;4986503;28;20396;-72
2022/09/15 10:15:35;;;;;;;1.10;1.00;;;17.00;99.90;;;;;;4984998;28;20493;-72
2022/09/15 10:18:01;;;;;;;0.65;0.65;;;17.10;99.90;;;;;;4984843;28;20031;-71
2022/09/15 10:20:46;;;;;;;1.58;1.27;;;17.20;99.90;;;;;;4984935;28;20027;-72
2022/09/15 10:23:20;;;;;;;0.45;0.45;;;17.20;99.90;;;;;;4986238;28;20050;-71
2022/09/15 10:25:46;;;;;;;1.50;1.40;;;17.20;99.90;;;;;;4986214;28;20064;-70
2022/09/15 10:28:14;;;;;;;1.85;1.75;;;17.30;99.90;;;;;;4986119;28;20030;-72
2022/09/15 10:30:57;;;;;;;10.25;4.85;;;17.40;99.90;;;;;;4977474;28;20046;-66
2022/09/15 10:33:27;;;;;;;3.72;3.05;;;17.30;99.90;;;;;;4978647;28;20113;-66
2022/09/15 10:35:59;;;;;;;1.70;1.60;;;17.50;99.90;;;;;;4985919;28;20030;-66
2022/09/15 10:38:38;;;;;;;1.88;1.58;;;17.50;99.90;;;;;;4983508;28;20038;-65
2022/09/15 10:41:26;;;;;;;0.55;0.55;;;17.60;99.90;;;;;;4967164;28;20066;-66
2022/09/15 10:44:19;;;;;;;1.17;1.10;;;17.70;99.90;;;;;;4891051;28;2248858;-66
2022/09/15 10:46:52;;;;;;;1.63;1.52;;;17.80;99.90;;;;;;4986836;28;20073;-66
2022/09/15 10:49:36;;;;;;;1.33;1.23;;;17.80;99.90;;;;;;4975805;28;20030;-65
2022/09/15 10:52:30;;;;;;;2.10;1.65;;;17.90;99.90;;;;;;4988756;28;20117;-66
2022/09/15 10:55:21;;;;;;;1.23;1.10;;;17.90;99.90;;;;;;4990886;28;20037;-65
2022/09/15 10:58:02;;;;;;;1.13;1.05;;;17.90;99.90;;;;;;5001294;28;20440;-67
2022/09/15 11:00:39;;;;;;;1.73;1.60;;;17.90;99.90;;;;;;4979555;28;20033;-65
2022/09/15 11:03:38;;;;;;;1.27;1.17;;;18.00;99.90;;;;;;5031398;28;20033;-67
2022/09/15 11:06:24;;;;;;;0.70;0.70;;;18.00;99.90;;;;;;4986925;28;20465;-66
2022/09/15 11:08:59;;;;;;;8.07;1.25;;;18.00;99.90;;;;;;5003617;28;20062;-68
2022/09/15 11:11:30;;;;;;;2.35;1.48;;;17.90;99.90;;;;;;4983170;28;20032;-66
2022/09/15 11:14:11;;;;;;;1.17;1.10;;;17.90;99.90;;;;;;4966868;28;20085;-65
2022/09/15 11:16:52;;;;;;;1.67;1.48;;;17.90;99.90;;;;;;4967295;28;20486;-66
2022/09/15 11:19:36;;;;;;;0.73;0.73;;;18.00;99.90;;;;;;4966588;28;20034;-66
2022/09/15 11:22:14;;;;;;;0.57;0.57;;;18.00;99.90;;;;;;4966913;28;20114;-65
2022/09/15 11:24:56;;;;;;;13.75;2.17;;;18.00;99.90;;;;;;4967139;28;20376;-65
2022/09/15 11:27:45;;;;;;;1.55;1.45;;;18.00;99.90;;;;;;4967319;28;20031;-66
2022/09/15 11:30:19;;;;;;;0.75;0.60;;;18.00;99.90;;;;;;4981100;28;20445;-66
2022/09/15 11:32:51;;;;;;;0.70;0.70;;;17.90;99.90;;;;;;4969610;28;20039;-66
2022/09/15 11:35:45;;;;;;;0.90;0.90;;;18.00;99.90;;;;;;4970407;28;20039;-67
2022/09/15 11:38:52;;;;;;;1.30;1.20;;;18.00;99.90;;;;;;4970007;28;20039;-66
2022/09/15 11:41:41;;;;;;;3.92;0.98;;;17.90;99.90;;;;;;4986965;28;20030;-67
2022/09/15 11:44:17;;;;;;;0.73;0.70;;;17.70;99.90;;;;;;4970476;28;20095;-66
2022/09/15 11:47:04;;;;;;;0.77;0.77;;;17.80;99.90;;;;;;4983541;28;20438;-66
2022/09/15 11:49:56;;;;;;;1.48;1.38;;;17.70;99.90;;;;;;4971609;28;20073;-65
2022/09/15 11:52:59;;;;;;;2.05;1.67;;;17.60;99.90;;;;;;4996884;28;20382;-65
2022/09/15 11:55:45;;;;;;;1.50;1.40;;;17.60;99.90;;;;;;5006778;28;20025;-65
2022/09/15 11:58:21;;;;;;;1.75;1.65;;;17.60;99.90;;;;;;5091448;28;20048;-66
2022/09/15 12:01:16;;;;;;;2.63;1.38;;;17.50;99.90;;;;;;5015124;28;20018;-66
2022/09/15 12:03:49;;;;;;;1.90;1.80;;;17.50;99.90;;;;;;4979537;28;20481;-66
2022/09/15 12:06:17;;;;;;;1.38;1.08;;;17.60;99.90;;;;;;4976856;28;20352;-66
2022/09/15 12:08:52;;;;;;;1.20;1.10;;;17.60;99.90;;;;;;4975303;28;20039;-66
2022/09/15 12:11:22;;;;;;;1.45;1.35;;;17.50;99.90;;;;;;4981614;28;20501;-66
2022/09/15 12:13:48;;;;;;;1.80;1.65;;;17.40;99.90;;;;;;4985401;28;20487;-64
2022/09/15 12:16:15;;;;;;;2.47;2.28;;;17.40;99.90;;;;;;4984138;28;20083;-64
2022/09/15 12:19:11;;;;;;;0.47;0.47;;;17.50;99.90;;;;;;4981606;28;20031;-65
2022/09/15 12:21:37;;;;;;;1.17;1.08;;;17.40;99.90;;;;;;4976302;28;20058;-66
2022/09/15 12:24:16;;;;;;;0.85;0.85;;;17.50;99.90;;;;;;4976595;28;20152;-66
2022/09/15 12:26:42;;;;;;;0.65;0.65;;;17.50;99.90;;;;;;4988109;28;20027;-65
2022/09/15 12:29:26;;;;;;;0.73;0.73;;;17.60;99.90;;;;;;4988149;28;20076;-65
2022/09/15 12:32:22;;;;;;;0.73;0.73;;;17.50;99.90;;;;;;4988594;28;20030;-65
2022/09/15 12:35:14;;;;;;;0.35;0.35;;;17.40;99.90;;;;;;4993162;28;20126;-65
2022/09/15 12:37:55;;;;;;;1.35;1.25;;;17.40;99.90;;;;;;4969752;28;20030;-64
2022/09/15 12:40:37;;;;;;;0.77;0.77;;;17.40;99.90;;;;;;4969372;28;20033;-66
2022/09/15 12:43:15;;;;;;;0.50;0.50;;;17.30;99.90;;;;;;4968451;28;20334;-65
2022/09/15 12:45:51;;;;;;;0.50;0.50;;;17.30;99.90;;;;;;4969171;28;20060;-64
2022/09/15 12:48:24;;;;;;;0.88;0.88;;;17.30;99.90;;;;;;4969218;28;20047;-67
2022/09/15 12:50:57;;;;;;;1.50;1.35;;;17.30;99.90;;;;;;4969203;28;20023;-66
2022/09/15 12:53:30;;;;;;;0.55;0.55;;;17.30;99.90;;;;;;4968684;28;20510;-65
2022/09/15 12:56:01;;;;;;;0.47;0.47;;;17.30;99.90;;;;;;4969280;28;20076;-64
2022/09/15 12:58:39;;;;;;;3.13;1.27;;;17.40;99.90;;;;;;4969134;28;20035;-65
2022/09/15 13:01:17;;;;;;;0.50;0.50;;;17.50;99.90;;;;;;4972936;28;20030;-65
2022/09/15 13:03:42;;;;;;;;;;;17.30;99.90;;;;;;4989049;28;20122;-65
2022/09/15 13:06:32;;;;;;;0.90;0.88;;;17.40;99.90;;;;;;4973111;28;19914;-66
2022/09/15 13:09:02;;;;;;;1.35;1.23;;;17.40;99.90;;;;;;4974605;28;20672;-66
2022/09/15 13:11:41;;;;;;;1.38;1.27;;;17.40;99.90;;;;;;4988484;28;20030;-66